KGUP/GUP METAR and TAF weather

Enter ICAO airport designator
Station Type Date Time Source
KGUP METAR 2019/07/20 04:53 UTC NOAA

KGUP 200453Z AUTO 22004KT 10SM SCT110 23/03 A3015 RMK AO2 LTG DSNT SW SLP008 T02280028


Station Type Date Time Source
KGUP Decoded METAR 2019/07/20 04:53 UTC NOAA

GALLUP MUNICIPAL AIRPORT, NM, United States (KGUP) 35-31N 108-47W 1971M
Jul 20, 2019 - 12:53 AM EDT / 2019.07.20 0453 UTC
Wind: from the SW (220 degrees) at 5 MPH (4 KT):0
Visibility: 10 mile(s):0
Sky conditions: partly cloudy
Weather: Lightning observed
Temperature: 73.0 F (22.8 C)
Dew Point: 37.0 F (2.8 C)
Relative Humidity: 26%
Pressure (altimeter): 30.15 in. Hg (1020 hPa)
ob: KGUP 200453Z AUTO 22004KT 10SM SCT110 23/03 A3015 RMK AO2 LTG DSNT SW SLP008 T02280028
cycle: 5

Station Type Date Time Source
KGUP TAF 2019/07/20 06:42 UTC NOAA

TAF KGUP 200539Z 2006/2106 22006KT P6SM BKN120
FM200700 VRB06KT P6SM SCT150
FM201800 27008KT P6SM SCT100
FM202100 26012G18KT P6SM VCSH BKN100

Example: see airport list